sensor_id;sensor_type;location;lat;lon;timestamp;pressure;altitude;pressure_sealevel;temperature;humidity
13013;BME280;22580;57.670;12.006;2023-03-31T00:01:29;99624.19;;;15.03;58.01
13013;BME280;22580;57.670;12.006;2023-03-31T00:04:00;99619.81;;;15.02;58.07
13013;BME280;22580;57.670;12.006;2023-03-31T00:06:29;99615.50;;;15.50;56.37
13013;BME280;22580;57.670;12.006;2023-03-31T00:09:01;99585.69;;;15.84;54.49
13013;BME280;22580;57.670;12.006;2023-03-31T00:11:30;99590.03;;;16.01;53.68
13013;BME280;22580;57.670;12.006;2023-03-31T00:13:58;99617.38;;;15.58;55.78
13013;BME280;22580;57.670;12.006;2023-03-31T00:16:31;99624.41;;;16.08;54.21
13013;BME280;22580;57.670;12.006;2023-03-31T00:19:00;99626.25;;;15.99;54.03
13013;BME280;22580;57.670;12.006;2023-03-31T00:21:29;99599.00;;;15.29;55.98
13013;BME280;22580;57.670;12.006;2023-03-31T00:24:11;99613.81;;;15.33;56.30
13013;BME280;22580;57.670;12.006;2023-03-31T00:26:40;99614.47;;;15.27;56.96
13013;BME280;22580;57.670;12.006;2023-03-31T00:29:10;99620.72;;;15.44;56.45
13013;BME280;22580;57.670;12.006;2023-03-31T00:31:40;99622.75;;;15.66;55.75
13013;BME280;22580;57.670;12.006;2023-03-31T00:34:08;99617.53;;;15.81;55.44
13013;BME280;22580;57.670;12.006;2023-03-31T00:36:37;99576.28;;;15.31;55.81
13013;BME280;22580;57.670;12.006;2023-03-31T00:39:22;99610.28;;;15.73;55.21
13013;BME280;22580;57.670;12.006;2023-03-31T00:42:01;99608.25;;;15.75;55.26
13013;BME280;22580;57.670;12.006;2023-03-31T00:44:29;99597.31;;;15.52;55.47
13013;BME280;22580;57.670;12.006;2023-03-31T00:47:02;99571.91;;;15.30;55.86
13013;BME280;22580;57.670;12.006;2023-03-31T00:49:39;99609.59;;;15.38;56.17
13013;BME280;22580;57.670;12.006;2023-03-31T00:52:12;99608.41;;;15.17;56.48
13013;BME280;22580;57.670;12.006;2023-03-31T00:54:47;99612.97;;;15.32;56.46
13013;BME280;22580;57.670;12.006;2023-03-31T00:57:19;99604.41;;;15.69;55.38
13013;BME280;22580;57.670;12.006;2023-03-31T01:00:02;99608.56;;;15.96;54.80
13013;BME280;22580;57.670;12.006;2023-03-31T01:02:52;99514.00;;;15.51;54.37
13013;BME280;22580;57.670;12.006;2023-03-31T01:05:50;99600.53;;;15.64;55.06
13013;BME280;22580;57.670;12.006;2023-03-31T01:08:30;99608.19;;;14.94;57.34
13013;BME280;22580;57.670;12.006;2023-03-31T01:11:05;99597.63;;;15.17;57.23
13013;BME280;22580;57.670;12.006;2023-03-31T01:13:38;99590.94;;;15.61;55.67
13013;BME280;22580;57.670;12.006;2023-03-31T01:16:08;99594.28;;;15.39;55.86
13013;BME280;22580;57.670;12.006;2023-03-31T01:18:39;99542.78;;;15.09;55.91
13013;BME280;22580;57.670;12.006;2023-03-31T01:21:48;99547.50;;;14.99;56.66
13013;BME280;22580;57.670;12.006;2023-03-31T01:28:22;99586.69;;;15.02;57.35
13013;BME280;22580;57.670;12.006;2023-03-31T01:43:08;99587.38;;;15.20;57.08
13013;BME280;22580;57.670;12.006;2023-03-31T01:45:52;99564.69;;;15.39;56.81
13013;BME280;22580;57.670;12.006;2023-03-31T01:48:30;99557.09;;;15.34;55.97
13013;BME280;22580;57.670;12.006;2023-03-31T01:51:08;99573.22;;;14.94;57.07
13013;BME280;22580;57.670;12.006;2023-03-31T01:54:02;99580.16;;;15.21;57.34
13013;BME280;22580;57.670;12.006;2023-03-31T01:56:40;99548.47;;;14.82;57.58
13013;BME280;22580;57.670;12.006;2023-03-31T01:59:46;99563.50;;;14.42;58.92
13013;BME280;22580;57.670;12.006;2023-03-31T02:02:30;99563.75;;;14.73;58.30
13013;BME280;22580;57.670;12.006;2023-03-31T02:05:08;99566.81;;;14.87;57.97
13013;BME280;22580;57.670;12.006;2023-03-31T02:07:49;99540.53;;;14.22;58.91
13013;BME280;22580;57.670;12.006;2023-03-31T02:10:19;99559.56;;;14.79;58.67
13013;BME280;22580;57.670;12.006;2023-03-31T02:12:50;99568.47;;;14.80;58.94
13013;BME280;22580;57.670;12.006;2023-03-31T02:15:24;99579.47;;;15.11;58.03
13013;BME280;22580;57.670;12.006;2023-03-31T02:18:01;99561.78;;;15.00;57.94
13013;BME280;22580;57.670;12.006;2023-03-31T02:21:00;99584.69;;;13.86;60.93
13013;BME280;22580;57.670;12.006;2023-03-31T02:23:30;99576.34;;;13.97;60.87
13013;BME280;22580;57.670;12.006;2023-03-31T02:26:04;99579.72;;;14.33;60.90
13013;BME280;22580;57.670;12.006;2023-03-31T02:28:39;99577.34;;;14.56;60.14
13013;BME280;22580;57.670;12.006;2023-03-31T02:31:20;99538.34;;;14.52;59.81
13013;BME280;22580;57.670;12.006;2023-03-31T02:34:00;99523.03;;;13.76;61.16
13013;BME280;22580;57.670;12.006;2023-03-31T02:36:29;99559.91;;;14.92;59.01
13013;BME280;22580;57.670;12.006;2023-03-31T02:39:02;99551.03;;;15.24;57.87
13013;BME280;22580;57.670;12.006;2023-03-31T02:41:38;99525.97;;;15.16;57.25
13013;BME280;22580;57.670;12.006;2023-03-31T02:44:10;99545.13;;;15.04;57.59
13013;BME280;22580;57.670;12.006;2023-03-31T02:46:41;99549.03;;;15.59;56.60
13013;BME280;22580;57.670;12.006;2023-03-31T02:49:20;99530.31;;;15.65;55.77
13013;BME280;22580;57.670;12.006;2023-03-31T02:52:10;99553.88;;;15.06;57.02
13013;BME280;22580;57.670;12.006;2023-03-31T03:01:10;99480.03;;;14.93;55.75
13013;BME280;22580;57.670;12.006;2023-03-31T03:04:01;99544.81;;;15.07;56.77
13013;BME280;22580;57.670;12.006;2023-03-31T03:06:46;99540.25;;;14.92;56.80
13013;BME280;22580;57.670;12.006;2023-03-31T03:09:32;99506.06;;;14.52;57.77
13013;BME280;22580;57.670;12.006;2023-03-31T03:12:10;99543.63;;;14.35;58.82
13013;BME280;22580;57.670;12.006;2023-03-31T03:14:49;99538.38;;;14.68;57.37
13013;BME280;22580;57.670;12.006;2023-03-31T03:17:22;99548.13;;;14.69;58.18
13013;BME280;22580;57.670;12.006;2023-03-31T03:20:00;99510.47;;;14.77;56.71
13013;BME280;22580;57.670;12.006;2023-03-31T03:22:30;99539.41;;;14.99;57.04
13013;BME280;22580;57.670;12.006;2023-03-31T03:24:59;99542.47;;;15.29;55.78
13013;BME280;22580;57.670;12.006;2023-03-31T03:27:29;99510.47;;;14.93;56.88
13013;BME280;22580;57.670;12.006;2023-03-31T03:30:00;99494.66;;;14.90;56.55
13013;BME280;22580;57.670;12.006;2023-03-31T03:32:30;99537.34;;;14.77;57.67
13013;BME280;22580;57.670;12.006;2023-03-31T03:35:03;99530.81;;;14.63;57.89
13013;BME280;22580;57.670;12.006;2023-03-31T03:37:31;99538.09;;;15.36;55.22
13013;BME280;22580;57.670;12.006;2023-03-31T03:40:00;99532.34;;;15.06;56.32
13013;BME280;22580;57.670;12.006;2023-03-31T03:42:30;99529.31;;;14.85;56.98
13013;BME280;22580;57.670;12.006;2023-03-31T03:44:59;99535.16;;;14.22;58.73
13013;BME280;22580;57.670;12.006;2023-03-31T03:47:30;99545.91;;;14.56;58.94
13013;BME280;22580;57.670;12.006;2023-03-31T03:49:59;99518.41;;;13.94;60.07
13013;BME280;22580;57.670;12.006;2023-03-31T03:52:40;99552.47;;;13.94;60.85
13013;BME280;22580;57.670;12.006;2023-03-31T03:55:10;99538.09;;;14.37;59.88
13013;BME280;22580;57.670;12.006;2023-03-31T03:57:39;99545.47;;;14.35;59.99
13013;BME280;22580;57.670;12.006;2023-03-31T04:00:10;99549.31;;;14.32;59.55
13013;BME280;22580;57.670;12.006;2023-03-31T04:02:39;99552.53;;;14.36;59.77
13013;BME280;22580;57.670;12.006;2023-03-31T04:05:09;99554.03;;;14.38;60.32
13013;BME280;22580;57.670;12.006;2023-03-31T04:07:35;99544.31;;;14.03;60.31
13013;BME280;22580;57.670;12.006;2023-03-31T04:10:10;99545.59;;;14.25;60.20
13013;BME280;22580;57.670;12.006;2023-03-31T04:12:39;99545.03;;;14.48;59.55
13013;BME280;22580;57.670;12.006;2023-03-31T04:15:10;99551.94;;;14.16;60.76
13013;BME280;22580;57.670;12.006;2023-03-31T04:17:40;99549.94;;;14.52;59.62
13013;BME280;22580;57.670;12.006;2023-03-31T04:20:13;99538.53;;;14.24;60.22
13013;BME280;22580;57.670;12.006;2023-03-31T04:22:52;99541.38;;;14.23;60.26
13013;BME280;22580;57.670;12.006;2023-03-31T04:25:29;99467.50;;;14.35;58.76
13013;BME280;22580;57.670;12.006;2023-03-31T04:28:01;99530.00;;;15.03;57.63
13013;BME280;22580;57.670;12.006;2023-03-31T04:30:31;99525.41;;;14.63;59.02
13013;BME280;22580;57.670;12.006;2023-03-31T04:33:01;99499.03;;;15.56;55.61
13013;BME280;22580;57.670;12.006;2023-03-31T04:35:30;99460.69;;;15.14;54.88
13013;BME280;22580;57.670;12.006;2023-03-31T04:38:09;99535.84;;;15.80;54.02
13013;BME280;22580;57.670;12.006;2023-03-31T04:40:39;99495.53;;;15.23;54.96
13013;BME280;22580;57.670;12.006;2023-03-31T04:43:12;99527.94;;;15.70;54.29
13013;BME280;22580;57.670;12.006;2023-03-31T04:45:49;99528.22;;;16.00;53.36
13013;BME280;22580;57.670;12.006;2023-03-31T04:48:20;99525.53;;;15.92;53.51
13013;BME280;22580;57.670;12.006;2023-03-31T04:50:49;99485.75;;;15.47;53.81
13013;BME280;22580;57.670;12.006;2023-03-31T04:53:18;99537.84;;;15.94;52.71
13013;BME280;22580;57.670;12.006;2023-03-31T04:55:50;99529.25;;;15.91;52.55
13013;BME280;22580;57.670;12.006;2023-03-31T04:58:20;99436.97;;;15.33;52.55
13013;BME280;22580;57.670;12.006;2023-03-31T05:00:51;99535.97;;;16.03;52.20
13013;BME280;22580;57.670;12.006;2023-03-31T05:06:49;99506.63;;;15.20;53.68
13013;BME280;22580;57.670;12.006;2023-03-31T05:09:22;99542.53;;;14.54;55.58
13013;BME280;22580;57.670;12.006;2023-03-31T05:11:59;99518.72;;;15.49;53.82
13013;BME280;22580;57.670;12.006;2023-03-31T05:14:31;99516.69;;;15.51;53.91
13013;BME280;22580;57.670;12.006;2023-03-31T05:17:00;99513.50;;;15.39;53.87
13013;BME280;22580;57.670;12.006;2023-03-31T05:19:29;99522.59;;;15.14;55.42
13013;BME280;22580;57.670;12.006;2023-03-31T05:22:00;99524.44;;;14.89;56.19
13013;BME280;22580;57.670;12.006;2023-03-31T05:24:30;99524.44;;;14.89;55.95
13013;BME280;22580;57.670;12.006;2023-03-31T05:27:00;99513.31;;;14.84;56.19
13013;BME280;22580;57.670;12.006;2023-03-31T05:29:28;99499.34;;;14.48;56.98
13013;BME280;22580;57.670;12.006;2023-03-31T05:31:59;99487.28;;;14.68;56.64
13013;BME280;22580;57.670;12.006;2023-03-31T05:34:31;99536.88;;;14.90;56.73
13013;BME280;22580;57.670;12.006;2023-03-31T05:37:02;99484.75;;;14.83;55.95
13013;BME280;22580;57.670;12.006;2023-03-31T05:39:40;99541.91;;;14.85;56.19
13013;BME280;22580;57.670;12.006;2023-03-31T05:42:22;99538.13;;;14.45;57.07
13013;BME280;22580;57.670;12.006;2023-03-31T05:44:49;99538.22;;;14.86;56.21
13013;BME280;22580;57.670;12.006;2023-03-31T05:47:22;99548.31;;;15.00;56.28
13013;BME280;22580;57.670;12.006;2023-03-31T05:49:48;99547.38;;;15.58;54.48
13013;BME280;22580;57.670;12.006;2023-03-31T05:52:20;99548.31;;;15.00;55.76
13013;BME280;22580;57.670;12.006;2023-03-31T05:54:49;99542.78;;;15.34;54.46
13013;BME280;22580;57.670;12.006;2023-03-31T05:57:19;99547.84;;;15.45;54.44
13013;BME280;22580;57.670;12.006;2023-03-31T05:59:51;99545.00;;;15.30;54.58
13013;BME280;22580;57.670;12.006;2023-03-31T06:02:20;99559.28;;;15.06;54.97
13013;BME280;22580;57.670;12.006;2023-03-31T06:04:49;99576.53;;;14.63;56.79
13013;BME280;22580;57.670;12.006;2023-03-31T06:07:19;99560.03;;;14.74;56.78
13013;BME280;22580;57.670;12.006;2023-03-31T06:09:50;99540.09;;;14.01;58.03
13013;BME280;22580;57.670;12.006;2023-03-31T06:12:20;99565.25;;;14.76;57.11
13013;BME280;22580;57.670;12.006;2023-03-31T06:14:53;99556.41;;;13.73;60.71
13013;BME280;22580;57.670;12.006;2023-03-31T06:17:31;99516.16;;;14.16;59.16
13013;BME280;22580;57.670;12.006;2023-03-31T06:20:01;99480.16;;;14.42;57.25
13013;BME280;22580;57.670;12.006;2023-03-31T06:22:50;99546.22;;;14.45;58.07
13013;BME280;22580;57.670;12.006;2023-03-31T06:25:20;99550.63;;;14.62;57.29
13013;BME280;22580;57.670;12.006;2023-03-31T06:27:50;99528.16;;;14.96;56.17
13013;BME280;22580;57.670;12.006;2023-03-31T06:30:21;99539.38;;;14.75;56.32
13013;BME280;22580;57.670;12.006;2023-03-31T06:32:59;99541.28;;;15.07;55.65
13013;BME280;22580;57.670;12.006;2023-03-31T06:35:31;99585.19;;;15.16;55.62
13013;BME280;22580;57.670;12.006;2023-03-31T06:38:03;99585.03;;;15.17;55.35
13013;BME280;22580;57.670;12.006;2023-03-31T06:40:41;99581.50;;;15.25;55.48
13013;BME280;22580;57.670;12.006;2023-03-31T06:43:09;99593.78;;;15.52;55.18
13013;BME280;22580;57.670;12.006;2023-03-31T06:45:38;99598.13;;;15.04;55.36
13013;BME280;22580;57.670;12.006;2023-03-31T06:48:12;99600.53;;;15.39;55.29
13013;BME280;22580;57.670;12.006;2023-03-31T06:50:49;99528.16;;;14.96;54.81
13013;BME280;22580;57.670;12.006;2023-03-31T06:53:29;99594.81;;;16.38;51.64
13013;BME280;22580;57.670;12.006;2023-03-31T06:56:00;99577.97;;;15.40;53.46
13013;BME280;22580;57.670;12.006;2023-03-31T06:58:30;99608.84;;;14.88;55.86
13013;BME280;22580;57.670;12.006;2023-03-31T07:01:03;99598.66;;;15.24;55.71
13013;BME280;22580;57.670;12.006;2023-03-31T07:03:40;99552.19;;;14.73;55.45
13013;BME280;22580;57.670;12.006;2023-03-31T07:06:10;99570.91;;;15.64;53.80
13013;BME280;22580;57.670;12.006;2023-03-31T07:08:42;99581.47;;;15.82;52.91
13013;BME280;22580;57.670;12.006;2023-03-31T07:11:21;99608.59;;;15.64;53.85
13013;BME280;22580;57.670;12.006;2023-03-31T07:13:50;99617.88;;;15.61;53.90
13013;BME280;22580;57.670;12.006;2023-03-31T07:16:20;99613.66;;;15.43;53.97
13013;BME280;22580;57.670;12.006;2023-03-31T07:18:51;99590.75;;;15.55;53.41
13013;BME280;22580;57.670;12.006;2023-03-31T07:21:19;99626.91;;;16.09;52.65
13013;BME280;22580;57.670;12.006;2023-03-31T07:23:50;99625.53;;;16.21;52.14
13013;BME280;22580;57.670;12.006;2023-03-31T07:26:20;99623.03;;;16.12;52.34
13013;BME280;22580;57.670;12.006;2023-03-31T07:28:51;99620.63;;;16.33;53.50
13013;BME280;22580;57.670;12.006;2023-03-31T07:31:20;99581.78;;;16.03;55.85
13013;BME280;22580;57.670;12.006;2023-03-31T07:33:51;99586.81;;;16.53;53.63
13013;BME280;22580;57.670;12.006;2023-03-31T07:36:21;99633.81;;;16.67;53.91
13013;BME280;22580;57.670;12.006;2023-03-31T07:38:51;99614.88;;;16.83;50.33
13013;BME280;22580;57.670;12.006;2023-03-31T07:41:21;99599.41;;;16.69;49.79
13013;BME280;22580;57.670;12.006;2023-03-31T07:43:52;99577.84;;;15.58;51.37
13013;BME280;22580;57.670;12.006;2023-03-31T07:46:20;99618.88;;;15.36;52.93
13013;BME280;22580;57.670;12.006;2023-03-31T07:48:50;99627.28;;;14.74;55.38
13013;BME280;22580;57.670;12.006;2023-03-31T07:51:22;99624.41;;;15.26;54.09
13013;BME280;22580;57.670;12.006;2023-03-31T07:54:11;99602.69;;;15.20;53.97
13013;BME280;22580;57.670;12.006;2023-03-31T07:56:41;99571.84;;;14.82;54.58
13013;BME280;22580;57.670;12.006;2023-03-31T07:59:09;99634.75;;;14.89;55.18
13013;BME280;22580;57.670;12.006;2023-03-31T08:01:39;99612.56;;;14.45;55.78
13013;BME280;22580;57.670;12.006;2023-03-31T08:04:12;99564.84;;;14.13;56.32
13013;BME280;22580;57.670;12.006;2023-03-31T08:06:41;99642.88;;;14.55;56.37
13013;BME280;22580;57.670;12.006;2023-03-31T08:09:13;99611.59;;;14.54;56.04
13013;BME280;22580;57.670;12.006;2023-03-31T08:11:50;99602.91;;;14.34;56.80
13013;BME280;22580;57.670;12.006;2023-03-31T08:14:20;99633.06;;;14.88;55.78
13013;BME280;22580;57.670;12.006;2023-03-31T08:16:49;99624.50;;;15.00;54.80
13013;BME280;22580;57.670;12.006;2023-03-31T08:19:19;99584.03;;;14.18;55.86
13013;BME280;22580;57.670;12.006;2023-03-31T08:21:49;99654.16;;;15.08;55.21
13013;BME280;22580;57.670;12.006;2023-03-31T08:24:21;99640.22;;;15.29;53.04
13013;BME280;22580;57.670;12.006;2023-03-31T08:26:51;99639.94;;;14.82;54.86
13013;BME280;22580;57.670;12.006;2023-03-31T08:29:20;99637.06;;;14.75;55.19
13013;BME280;22580;57.670;12.006;2023-03-31T08:31:52;99616.75;;;14.89;54.63
13013;BME280;22580;57.670;12.006;2023-03-31T08:34:33;99555.72;;;14.39;54.85
13013;BME280;22580;57.670;12.006;2023-03-31T08:37:11;99630.63;;;15.35;54.19
13013;BME280;22580;57.670;12.006;2023-03-31T08:39:42;99629.97;;;15.33;53.79
13013;BME280;22580;57.670;12.006;2023-03-31T08:42:42;99568.50;;;14.96;53.69
13013;BME280;22580;57.670;12.006;2023-03-31T08:45:31;99626.56;;;15.15;53.91
13013;BME280;22580;57.670;12.006;2023-03-31T08:48:21;99652.47;;;15.16;54.18
13013;BME280;22580;57.670;12.006;2023-03-31T08:51:14;99646.75;;;15.11;54.40
13013;BME280;22580;57.670;12.006;2023-03-31T08:54:00;99586.63;;;14.77;53.78
13013;BME280;22580;57.670;12.006;2023-03-31T08:56:43;99616.56;;;14.83;53.88
13013;BME280;22580;57.670;12.006;2023-03-31T08:59:26;99646.63;;;15.28;53.79
13013;BME280;22580;57.670;12.006;2023-03-31T09:02:11;99617.50;;;14.57;54.79
13013;BME280;22580;57.670;12.006;2023-03-31T09:05:12;99654.75;;;14.44;55.17
13013;BME280;22580;57.670;12.006;2023-03-31T09:08:00;99654.19;;;15.25;54.40
13013;BME280;22580;57.670;12.006;2023-03-31T09:10:51;99650.00;;;15.30;53.65
13013;BME280;22580;57.670;12.006;2023-03-31T09:14:13;99660.56;;;15.16;54.13
13013;BME280;22580;57.670;12.006;2023-03-31T09:17:04;99631.13;;;14.56;54.66
13013;BME280;22580;57.670;12.006;2023-03-31T09:19:42;99682.34;;;13.41;57.25
13013;BME280;22580;57.670;12.006;2023-03-31T09:22:21;99674.72;;;14.75;55.56
13013;BME280;22580;57.670;12.006;2023-03-31T09:25:00;99661.25;;;14.75;55.28
13013;BME280;22580;57.670;12.006;2023-03-31T09:27:54;99631.81;;;14.32;55.14
13013;BME280;22580;57.670;12.006;2023-03-31T09:30:51;99642.44;;;14.67;54.59
13013;BME280;22580;57.670;12.006;2023-03-31T09:33:42;99676.31;;;14.52;55.93
13013;BME280;22580;57.670;12.006;2023-03-31T09:36:21;99635.59;;;13.95;56.29
13013;BME280;22580;57.670;12.006;2023-03-31T09:38:51;99642.41;;;14.33;56.21
13013;BME280;22580;57.670;12.006;2023-03-31T09:41:21;99608.56;;;14.49;54.62
13013;BME280;22580;57.670;12.006;2023-03-31T09:43:51;99648.03;;;13.17;58.18
13013;BME280;22580;57.670;12.006;2023-03-31T09:46:25;99680.44;;;14.72;55.46
13013;BME280;22580;57.670;12.006;2023-03-31T09:49:02;99682.41;;;14.62;55.93
13013;BME280;22580;57.670;12.006;2023-03-31T09:51:56;99608.13;;;14.01;56.02
13013;BME280;22580;57.670;12.006;2023-03-31T09:54:42;99656.47;;;15.03;54.56
13013;BME280;22580;57.670;12.006;2023-03-31T09:57:23;99620.22;;;14.73;54.19
13013;BME280;22580;57.670;12.006;2023-03-31T10:00:13;99682.00;;;14.91;54.41
13013;BME280;22580;57.670;12.006;2023-03-31T10:03:09;99681.78;;;15.35;53.54
13013;BME280;22580;57.670;12.006;2023-03-31T10:05:50;99667.88;;;15.56;53.13
13013;BME280;22580;57.670;12.006;2023-03-31T10:08:39;99694.25;;;14.26;55.71
13013;BME280;22580;57.670;12.006;2023-03-31T10:11:11;99698.75;;;15.19;54.00
13013;BME280;22580;57.670;12.006;2023-03-31T10:14:31;99661.50;;;14.48;54.63
13013;BME280;22580;57.670;12.006;2023-03-31T10:16:43;99670.16;;;14.76;54.84
13013;BME280;22580;57.670;12.006;2023-03-31T10:19:22;99702.84;;;14.47;56.31
13013;BME280;22580;57.670;12.006;2023-03-31T10:22:13;99617.13;;;12.95;59.43
13013;BME280;22580;57.670;12.006;2023-03-31T10:25:12;99679.25;;;13.71;58.40
13013;BME280;22580;57.670;12.006;2023-03-31T10:28:10;99718.03;;;13.95;58.72
13013;BME280;22580;57.670;12.006;2023-03-31T10:30:52;99651.81;;;13.42;58.68
13013;BME280;22580;57.670;12.006;2023-03-31T10:33:43;99621.09;;;14.40;56.53
13013;BME280;22580;57.670;12.006;2023-03-31T10:36:33;99676.34;;;14.34;56.60
13013;BME280;22580;57.670;12.006;2023-03-31T10:39:19;99675.91;;;14.21;56.92
13013;BME280;22580;57.670;12.006;2023-03-31T10:41:49;99723.69;;;14.87;56.24
13013;BME280;22580;57.670;12.006;2023-03-31T10:44:32;99718.94;;;14.73;56.26
13013;BME280;22580;57.670;12.006;2023-03-31T10:47:21;99624.81;;;14.13;56.81
13013;BME280;22580;57.670;12.006;2023-03-31T10:50:03;99695.38;;;14.41;56.96
13013;BME280;22580;57.670;12.006;2023-03-31T10:52:44;99673.47;;;15.04;55.47
13013;BME280;22580;57.670;12.006;2023-03-31T10:55:23;99646.53;;;14.46;55.43
13013;BME280;22580;57.670;12.006;2023-03-31T10:58:12;99665.03;;;14.49;55.40
13013;BME280;22580;57.670;12.006;2023-03-31T11:01:04;99698.88;;;13.19;60.82
13013;BME280;22580;57.670;12.006;2023-03-31T11:04:11;99696.97;;;14.52;57.43
13013;BME280;22580;57.670;12.006;2023-03-31T11:07:11;99642.88;;;14.03;56.62
13013;BME280;22580;57.670;12.006;2023-03-31T11:13:19;99677.22;;;14.69;54.48
13013;BME280;22580;57.670;12.006;2023-03-31T11:16:11;99715.16;;;15.50;53.66
13013;BME280;22580;57.670;12.006;2023-03-31T11:19:14;99716.88;;;15.09;54.08
13013;BME280;22580;57.670;12.006;2023-03-31T11:28:01;99755.50;;;15.34;54.61
13013;BME280;22580;57.670;12.006;2023-03-31T11:30:42;99710.22;;;14.45;55.59
13013;BME280;22580;57.670;12.006;2023-03-31T11:39:40;99757.19;;;15.35;54.06
13013;BME280;22580;57.670;12.006;2023-03-31T11:42:52;99759.84;;;14.33;56.32
13013;BME280;22580;57.670;12.006;2023-03-31T11:45:51;99748.97;;;14.60;55.22
13013;BME280;22580;57.670;12.006;2023-03-31T11:48:43;99756.59;;;14.47;56.12
13013;BME280;22580;57.670;12.006;2023-03-31T11:51:32;99768.53;;;13.38;57.33
13013;BME280;22580;57.670;12.006;2023-03-31T11:54:31;99696.06;;;13.38;57.73
13013;BME280;22580;57.670;12.006;2023-03-31T11:57:31;99790.84;;;14.97;55.42
13013;BME280;22580;57.670;12.006;2023-03-31T12:03:10;99744.13;;;14.20;56.54
13013;BME280;22580;57.670;12.006;2023-03-31T12:05:50;99706.53;;;14.46;54.89
13013;BME280;22580;57.670;12.006;2023-03-31T12:08:33;99759.56;;;14.62;55.01
13013;BME280;22580;57.670;12.006;2023-03-31T12:11:24;99716.84;;;15.01;53.34
13013;BME280;22580;57.670;12.006;2023-03-31T12:14:33;99707.66;;;14.77;53.70
13013;BME280;22580;57.670;12.006;2023-03-31T12:17:12;99785.41;;;15.23;53.29
13013;BME280;22580;57.670;12.006;2023-03-31T12:19:52;99759.34;;;15.23;52.66
13013;BME280;22580;57.670;12.006;2023-03-31T12:22:32;99711.25;;;13.83;53.53
13013;BME280;22580;57.670;12.006;2023-03-31T12:25:34;99761.88;;;14.91;53.42
13013;BME280;22580;57.670;12.006;2023-03-31T12:28:10;99788.44;;;15.20;53.37
13013;BME280;22580;57.670;12.006;2023-03-31T12:30:41;99785.59;;;15.29;52.55
13013;BME280;22580;57.670;12.006;2023-03-31T12:33:33;99788.38;;;15.46;52.86
13013;BME280;22580;57.670;12.006;2023-03-31T12:36:22;99792.88;;;15.37;52.34
13013;BME280;22580;57.670;12.006;2023-03-31T12:39:22;99773.75;;;15.56;51.86
13013;BME280;22580;57.670;12.006;2023-03-31T12:42:41;99798.13;;;15.47;52.15
13013;BME280;22580;57.670;12.006;2023-03-31T12:45:46;99786.09;;;14.39;54.19
13013;BME280;22580;57.670;12.006;2023-03-31T12:51:32;99799.38;;;14.58;54.66
13013;BME280;22580;57.670;12.006;2023-03-31T12:54:23;99765.00;;;13.37;57.18
13013;BME280;22580;57.670;12.006;2023-03-31T12:57:11;99755.41;;;14.06;54.81
13013;BME280;22580;57.670;12.006;2023-03-31T13:00:21;99794.22;;;14.99;53.54
13013;BME280;22580;57.670;12.006;2023-03-31T13:09:41;99745.00;;;14.47;53.30
13013;BME280;22580;57.670;12.006;2023-03-31T13:12:23;99794.81;;;15.19;53.32
13013;BME280;22580;57.670;12.006;2023-03-31T13:15:12;99704.03;;;13.48;55.89
13013;BME280;22580;57.670;12.006;2023-03-31T13:17:59;99795.34;;;14.88;54.35
13013;BME280;22580;57.670;12.006;2023-03-31T13:20:32;99751.88;;;14.23;54.87
13013;BME280;22580;57.670;12.006;2023-03-31T13:23:19;99805.41;;;13.99;56.57
13013;BME280;22580;57.670;12.006;2023-03-31T13:26:01;99805.00;;;13.94;56.22
13013;BME280;22580;57.670;12.006;2023-03-31T13:28:40;99798.38;;;14.59;55.85
13013;BME280;22580;57.670;12.006;2023-03-31T13:31:12;99731.63;;;14.11;55.91
13013;BME280;22580;57.670;12.006;2023-03-31T13:33:48;99790.41;;;14.32;56.25
13013;BME280;22580;57.670;12.006;2023-03-31T13:36:48;99795.78;;;15.52;53.45
13013;BME280;22580;57.670;12.006;2023-03-31T13:39:49;99802.41;;;15.57;52.72
13013;BME280;22580;57.670;12.006;2023-03-31T13:45:55;99781.91;;;15.30;52.73
13013;BME280;22580;57.670;12.006;2023-03-31T13:48:39;99781.97;;;15.04;52.57
13013;BME280;22580;57.670;12.006;2023-03-31T13:51:29;99777.91;;;15.43;51.92
13013;BME280;22580;57.670;12.006;2023-03-31T13:57:28;99804.16;;;15.40;52.06
13013;BME280;22580;57.670;12.006;2023-03-31T14:00:22;99805.28;;;15.30;51.99
13013;BME280;22580;57.670;12.006;2023-03-31T14:03:17;99802.75;;;14.94;52.79
13013;BME280;22580;57.670;12.006;2023-03-31T14:05:54;99807.50;;;15.00;52.42
13013;BME280;22580;57.670;12.006;2023-03-31T14:08:38;99821.13;;;15.33;51.33
13013;BME280;22580;57.670;12.006;2023-03-31T14:11:22;99827.19;;;14.31;54.38
13013;BME280;22580;57.670;12.006;2023-03-31T14:14:03;99800.09;;;13.89;54.85
13013;BME280;22580;57.670;12.006;2023-03-31T14:17:01;99802.88;;;13.62;56.41
13013;BME280;22580;57.670;12.006;2023-03-31T14:23:03;99839.81;;;13.77;55.44
13013;BME280;22580;57.670;12.006;2023-03-31T14:25:52;99766.72;;;13.56;55.37
13013;BME280;22580;57.670;12.006;2023-03-31T14:28:48;99833.19;;;14.61;53.96
13013;BME280;22580;57.670;12.006;2023-03-31T14:31:23;99824.94;;;14.62;53.92
13013;BME280;22580;57.670;12.006;2023-03-31T14:37:02;99814.38;;;14.43;53.85
13013;BME280;22580;57.670;12.006;2023-03-31T14:40:01;99818.00;;;13.98;54.05
13013;BME280;22580;57.670;12.006;2023-03-31T14:42:40;99756.47;;;13.69;54.74
13013;BME280;22580;57.670;12.006;2023-03-31T14:48:08;99825.19;;;13.35;57.60
13013;BME280;22580;57.670;12.006;2023-03-31T14:50:43;99751.94;;;13.25;56.71
13013;BME280;22580;57.670;12.006;2023-03-31T14:53:23;99784.84;;;13.27;56.40
13013;BME280;22580;57.670;12.006;2023-03-31T14:56:03;99774.25;;;13.70;55.98
13013;BME280;22580;57.670;12.006;2023-03-31T14:58:53;99795.63;;;14.51;53.73
13013;BME280;22580;57.670;12.006;2023-03-31T15:04:29;99788.53;;;13.71;54.75